Time;durP1;ratioP1;P1;durP2;ratioP2;P2;SDS_P1;SDS_P2;PMS_P1;PMS_P2;Temp;Humidity;BMP_temperature;BMP_pressure;BME280_temperature;BME280_humidity;BME280_pressure;Samples;Min_cycle;Max_cycle;Signal;HPM_P1;HPM_P2
2022/01/12 00:01:09;;;;;;;61.97;25.15;;;;;;;-2.88;81.55;103659.34;4998628;28;21625;-46
2022/01/12 00:03:34;;;;;;;66.90;25.67;;;;;;;-2.83;81.37;103659.97;5000747;28;20479;-46
2022/01/12 00:06:02;;;;;;;72.38;25.00;;;;;;;-2.69;81.43;103669.66;4997086;28;20049;-46
2022/01/12 00:08:27;;;;;;;64.00;24.58;;;;;;;-2.59;80.61;103678.66;4998066;28;20053;-46
2022/01/12 00:10:56;;;;;;;64.03;25.40;;;;;;;-2.55;80.23;103655.69;4999498;28;20134;-46
2022/01/12 00:13:21;;;;;;;63.05;23.42;;;;;;;-2.51;79.77;103654.59;4997603;28;20766;-47
2022/01/12 00:15:47;;;;;;;64.20;22.77;;;;;;;-2.48;79.36;103647.38;4998777;28;20050;-46
2022/01/12 00:18:12;;;;;;;69.28;25.92;;;;;;;-2.45;79.80;103646.34;5000205;28;20037;-46
2022/01/12 00:20:38;;;;;;;62.67;23.10;;;;;;;-2.45;79.34;103646.34;4995763;28;20164;-46
2022/01/12 00:23:04;;;;;;;57.80;22.90;;;;;;;-2.49;80.39;103636.97;4997269;28;20476;-46
2022/01/12 00:25:33;;;;;;;61.40;22.02;;;;;;;-2.53;80.32;103638.91;4999547;28;20018;-46
2022/01/12 00:33:27;;;;;;;66.45;21.70;;;;;;;-2.56;81.16;103628.59;4997149;28;20471;-46
2022/01/12 00:35:55;;;;;;;65.35;22.38;;;;;;;-2.58;81.18;103629.63;4996951;28;20065;-47
2022/01/12 00:38:25;;;;;;;64.80;21.92;;;;;;;-2.61;81.65;103635.06;5000127;28;20026;-46
2022/01/12 00:40:53;;;;;;;63.78;24.67;;;;;;;-2.66;80.88;103619.59;4995715;28;20331;-46
2022/01/12 00:43:21;;;;;;;59.85;23.20;;;;;;;-2.64;81.14;103617.72;5000010;28;20030;-46
2022/01/12 00:45:47;;;;;;;71.47;25.08;;;;;;;-2.57;81.22;103624.28;4997957;28;20033;-46
2022/01/12 00:48:14;;;;;;;64.53;23.77;;;;;;;-2.53;80.98;103636.28;4982928;28;20044;-46
2022/01/12 00:50:41;;;;;;;60.03;23.83;;;;;;;-2.46;80.69;103629.75;4999033;28;20124;-46
2022/01/12 00:53:07;;;;;;;66.85;23.42;;;;;;;-2.37;80.62;103633.59;4997354;28;20615;-46
2022/01/12 00:55:33;;;;;;;54.70;24.75;;;;;;;-2.29;80.38;103633.16;4998520;28;20121;-46
2022/01/12 00:57:59;;;;;;;57.08;22.52;;;;;;;-2.31;80.33;103635.88;4998675;28;20030;-47
2022/01/12 01:00:27;;;;;;;64.28;23.73;;;;;;;-2.28;79.71;103640.09;5000034;28;20487;-45
2022/01/12 01:02:54;;;;;;;60.75;21.98;;;;;;;-2.30;80.02;103637.56;4999529;28;20030;-46
2022/01/12 01:05:24;;;;;;;59.03;22.15;;;;;;;-2.31;79.66;103654.25;4999484;28;20471;-46
2022/01/12 01:07:51;;;;;;;67.90;23.05;;;;;;;-2.27;80.17;103647.03;4998482;28;20084;-46
2022/01/12 01:10:45;;;;;;;63.38;24.17;;;;;;;-2.25;79.38;103647.78;4996559;28;20026;-46
2022/01/12 01:13:15;;;;;;;67.32;24.02;;;;;;;-2.23;79.34;103638.84;4999742;28;20091;-46
2022/01/12 01:26:33;;;;;;;61.80;24.10;;;;;;;-2.32;80.19;103630.72;5031998;28;20500;-46
2022/01/12 01:28:58;;;;;;;63.03;23.90;;;;;;;-2.33;80.16;103623.78;5036251;28;20034;-45
2022/01/12 01:31:29;;;;;;;62.72;23.75;;;;;;;-2.31;79.82;103628.00;5037085;28;20033;-45
2022/01/12 01:33:55;;;;;;;67.18;25.88;;;;;;;-2.28;80.30;103627.78;5035465;28;20024;-45
2022/01/12 01:36:21;;;;;;;67.45;22.80;;;;;;;-2.26;80.18;103615.41;5037885;28;20047;-46
2022/01/12 01:38:46;;;;;;;56.97;22.40;;;;;;;-2.28;79.94;103619.91;5038138;28;20402;-45
2022/01/12 01:41:12;;;;;;;64.90;24.17;;;;;;;-2.30;80.43;103626.22;5037992;28;20025;-46
2022/01/12 01:43:54;;;;;;;66.78;24.27;;;;;;;-2.32;80.71;103618.44;5034575;28;20163;-46
2022/01/12 01:54:32;;;;;;;67.60;24.27;;;;;;;-2.48;81.10;103612.41;5036599;28;20036;-45
2022/01/12 01:56:58;;;;;;;60.03;22.33;;;;;;;-2.55;81.70;103611.06;5037663;28;20029;-45
2022/01/12 01:59:23;;;;;;;64.20;22.95;;;;;;;-2.60;81.89;103610.50;5038269;28;20552;-45
2022/01/12 02:01:49;;;;;;;62.05;23.38;;;;;;;-2.62;82.31;103622.88;5034184;28;20047;-45
2022/01/12 02:04:15;;;;;;;74.05;24.23;;;;;;;-2.61;81.45;103611.44;5035405;28;20102;-45
2022/01/12 02:06:41;;;;;;;68.63;23.90;;;;;;;-2.58;81.94;103609.47;5035689;28;20147;-45
2022/01/12 02:09:06;;;;;;;62.78;23.30;;;;;;;-2.53;81.56;103610.03;5036276;28;20020;-45
2022/01/12 02:11:32;;;;;;;65.50;24.05;;;;;;;-2.49;81.72;103603.69;5041609;28;20099;-47
2022/01/12 02:13:57;;;;;;;68.05;24.92;;;;;;;-2.55;82.19;103590.91;5038005;28;20166;-45
2022/01/12 02:16:31;;;;;;;62.65;23.30;;;;;;;-2.51;82.12;103599.47;5042122;28;20592;-45
2022/01/12 02:40:56;;;;;;;58.38;22.30;;;;;;;-2.19;80.52;103590.44;5040049;28;20048;-45
2022/01/12 02:54:50;;;;;;;67.15;24.08;;;;;;;-2.15;80.89;103599.00;5019967;28;20140;-45
2022/01/12 02:57:19;;;;;;;56.30;21.50;;;;;;;-2.12;80.74;103604.06;5033913;28;20033;-45
2022/01/12 03:02:32;;;;;;;57.78;22.80;;;;;;;-2.04;80.29;103603.56;5037607;28;20040;-45
2022/01/12 03:07:36;;;;;;;63.10;23.58;;;;;;;-2.14;80.47;103587.56;5040884;28;20032;-45
2022/01/12 03:10:03;;;;;;;58.58;21.13;;;;;;;-2.21;81.00;103581.81;5035876;28;20030;-45
2022/01/12 03:12:28;;;;;;;66.60;24.02;;;;;;;-2.28;80.68;103583.16;5042135;28;20041;-45
2022/01/12 03:14:53;;;;;;;61.97;21.73;;;;;;;-2.28;81.55;103583.16;5039282;28;20028;-45
2022/01/12 03:17:20;;;;;;;67.07;23.58;;;;;;;-2.32;81.41;103580.81;5040875;28;20754;-47
2022/01/12 03:19:45;;;;;;;65.85;22.65;;;;;;;-2.34;81.71;103583.50;5039416;28;20017;-45
2022/01/12 03:22:12;;;;;;;61.13;22.50;;;;;;;-2.30;81.80;103584.19;5036935;28;20040;-45
2022/01/12 03:24:37;;;;;;;64.70;23.25;;;;;;;-2.29;81.88;103576.22;5036663;28;20082;-45
2022/01/12 03:27:05;;;;;;;65.20;23.33;;;;;;;-2.29;81.87;103580.63;5038705;28;20057;-45
2022/01/12 03:29:30;;;;;;;65.18;22.83;;;;;;;-2.27;81.65;103584.84;5041267;28;20281;-45
2022/01/12 03:31:57;;;;;;;57.85;23.10;;;;;;;-2.20;81.55;103587.91;5038363;28;20045;-45
2022/01/12 03:34:32;;;;;;;64.72;22.88;;;;;;;-2.14;81.24;103590.19;5037528;28;20033;-45
2022/01/12 03:39:42;;;;;;;64.65;22.85;;;;;;;-2.14;81.24;103588.41;5038142;28;20056;-46
2022/01/12 03:42:07;;;;;;;75.45;24.13;;;;;;;-2.09;81.15;103584.63;5038587;28;20390;-45
2022/01/12 03:44:33;;;;;;;60.70;20.45;;;;;;;-2.12;80.87;103588.31;5041421;28;20533;-45
2022/01/12 03:46:58;;;;;;;61.30;22.92;;;;;;;-2.14;80.85;103585.78;5037481;28;20025;-46
2022/01/12 03:49:24;;;;;;;62.13;21.42;;;;;;;-2.14;81.56;103591.03;5037452;28;20497;-45
2022/01/12 03:51:50;;;;;;;61.38;22.48;;;;;;;-2.14;81.24;103603.31;5037885;28;20032;-45
2022/01/12 03:54:16;;;;;;;69.00;23.83;;;;;;;-2.14;81.57;103612.03;5037845;28;20021;-45
2022/01/12 03:56:41;;;;;;;59.22;22.05;;;;;;;-2.08;81.02;103612.59;5037354;28;20036;-45
2022/01/12 03:59:07;;;;;;;63.22;22.02;;;;;;;-2.04;81.55;103612.31;5038245;28;20027;-45
2022/01/12 04:01:35;;;;;;;60.75;23.15;;;;;;;-2.02;80.99;103601.69;5038277;28;20467;-46
2022/01/12 04:04:04;;;;;;;59.70;23.45;;;;;;;-2.03;80.70;103594.75;5038557;28;20029;-47
2022/01/12 04:09:15;;;;;;;65.03;22.65;;;;;;;-2.08;81.31;103594.19;5036000;28;20040;-45
2022/01/12 04:11:41;;;;;;;58.72;21.85;;;;;;;-2.10;81.10;103601.34;5035551;28;20025;-45
2022/01/12 04:14:07;;;;;;;58.67;22.23;;;;;;;-2.11;81.34;103602.28;5040083;28;20060;-45
2022/01/12 04:16:32;;;;;;;60.17;23.55;;;;;;;-2.11;81.64;103594.41;5038684;28;20474;-46
2022/01/12 04:18:58;;;;;;;59.83;20.02;;;;;;;-2.16;81.39;103585.00;5039007;28;20035;-45
2022/01/12 04:21:28;;;;;;;51.55;21.00;;;;;;;-2.23;81.97;103598.63;5039161;28;20044;-45
2022/01/12 04:23:55;;;;;;;60.10;22.88;;;;;;;-2.20;81.80;103598.41;5037553;28;20958;-45
2022/01/12 04:26:22;;;;;;;61.30;22.70;;;;;;;-2.16;81.96;103597.28;5039057;28;20033;-45
2022/01/12 04:28:47;;;;;;;61.60;22.80;;;;;;;-2.22;82.02;103585.38;5034901;28;20025;-45
2022/01/12 04:31:13;;;;;;;62.90;21.95;;;;;;;-2.31;82.36;103587.75;5037931;28;20492;-46
2022/01/12 04:33:41;;;;;;;63.15;22.35;;;;;;;-2.26;83.00;103590.94;5035583;28;20087;-45
2022/01/12 04:36:08;;;;;;;59.28;21.30;;;;;;;-2.22;82.96;103593.28;5037983;28;20471;-45
2022/01/12 04:38:36;;;;;;;67.72;24.30;;;;;;;-2.20;82.80;103596.63;5033963;28;20021;-46
2022/01/12 04:41:06;;;;;;;63.75;24.95;;;;;;;-2.16;82.71;103587.63;5037990;28;20068;-45
2022/01/12 04:43:33;;;;;;;65.70;22.80;;;;;;;-2.15;82.90;103589.34;5037101;28;20302;-45
2022/01/12 04:51:08;;;;;;;73.28;22.92;;;;;;;-2.08;82.50;103602.94;5040241;28;20040;-45
2022/01/12 04:53:34;;;;;;;64.90;24.98;;;;;;;-2.00;81.94;103615.56;5036980;28;20386;-45
2022/01/12 04:55:59;;;;;;;61.53;22.98;;;;;;;-1.96;81.79;103606.59;5037518;28;20358;-45
2022/01/12 04:58:27;;;;;;;60.58;21.67;;;;;;;-1.91;81.86;103605.34;5039940;28;20022;-46
2022/01/12 05:00:57;;;;;;;66.65;22.20;;;;;;;-1.87;82.00;103603.38;5038087;28;21488;-45
2022/01/12 05:13:56;;;;;;;67.07;23.70;;;;;;;-2.15;82.82;103593.75;5036697;28;20095;-46
2022/01/12 05:16:23;;;;;;;66.65;25.88;;;;;;;-2.13;83.08;103600.59;5038973;28;20033;-45
2022/01/12 05:18:50;;;;;;;69.60;25.88;;;;;;;-2.09;83.08;103603.03;5036430;28;20017;-45
2022/01/12 05:21:17;;;;;;;72.88;26.60;;;;;;;-2.10;83.39;103602.19;5034199;28;20047;-46
2022/01/12 05:23:43;;;;;;;66.00;25.58;;;;;;;-2.04;83.14;103603.56;5036111;28;20067;-45
2022/01/12 05:26:09;;;;;;;86.95;26.60;;;;;;;-2.05;83.16;103597.47;5037785;28;20106;-46
2022/01/12 05:28:38;;;;;;;64.25;23.27;;;;;;;-2.06;83.37;103587.06;5036855;28;20048;-45
2022/01/12 05:31:04;;;;;;;71.20;26.77;;;;;;;-2.13;82.99;103582.22;5039105;28;20042;-45
2022/01/12 05:33:30;;;;;;;75.38;26.00;;;;;;;-2.12;83.37;103567.28;5036508;28;20028;-45
2022/01/12 05:35:58;;;;;;;79.13;24.00;;;;;;;-2.11;83.57;103562.88;5035864;28;20032;-45
2022/01/12 05:38:24;;;;;;;74.85;25.70;;;;;;;-2.21;84.16;103573.94;5032806;28;20025;-46
2022/01/12 05:40:55;;;;;;;81.93;26.67;;;;;;;-2.23;84.10;103573.19;5035031;28;20033;-45
2022/01/12 05:43:25;;;;;;;66.00;24.95;;;;;;;-2.19;84.02;103577.31;5039151;28;20186;-47
2022/01/12 05:45:52;;;;;;;70.72;26.10;;;;;;;-2.14;84.01;103582.31;5036046;28;20123;-45
2022/01/12 05:50:46;;;;;;;69.35;22.77;;;;;;;-2.11;84.58;103574.22;5036471;28;20055;-45
2022/01/12 05:53:12;;;;;;;71.85;23.63;;;;;;;-2.18;84.40;103568.50;5028947;28;20410;-46
2022/01/12 05:55:38;;;;;;;70.13;23.70;;;;;;;-2.22;84.92;103574.88;5037196;28;20028;-45
2022/01/12 05:58:03;;;;;;;66.90;23.25;;;;;;;-2.19;85.12;103569.44;5038200;28;20071;-45
2022/01/12 06:00:29;;;;;;;71.20;25.33;;;;;;;-2.19;85.18;103573.84;5037122;28;20021;-45
2022/01/12 06:02:55;;;;;;;62.10;21.25;;;;;;;-2.13;85.34;103576.94;5036825;28;20064;-45
2022/01/12 06:05:22;;;;;;;66.85;24.27;;;;;;;-2.11;84.27;103576.84;5038296;28;20033;-45
2022/01/12 06:07:49;;;;;;;68.57;23.45;;;;;;;-2.04;84.47;103582.56;5034526;28;20025;-45
2022/01/12 06:10:16;;;;;;;64.07;24.13;;;;;;;-2.03;84.52;103582.47;5036969;28;20108;-45
2022/01/12 06:12:42;;;;;;;57.90;21.67;;;;;;;-1.96;84.03;103590.81;5034420;28;20454;-45
2022/01/12 06:15:08;;;;;;;65.82;24.00;;;;;;;-1.89;84.04;103590.31;5034742;28;20544;-45
2022/01/12 06:17:35;;;;;;;68.65;26.15;;;;;;;-1.85;84.09;103597.06;5036166;28;20538;-45
2022/01/12 06:20:02;;;;;;;68.47;23.63;;;;;;;-1.80;83.64;103599.41;5035657;28;20130;-46
2022/01/12 06:22:28;;;;;;;66.15;23.17;;;;;;;-1.76;82.82;103597.44;5034613;28;20025;-45
2022/01/12 06:24:54;;;;;;;58.42;22.00;;;;;;;-1.72;82.72;103586.63;5034264;28;20403;-45
2022/01/12 06:27:21;;;;;;;68.05;23.25;;;;;;;-1.73;83.06;103592.81;5033806;28;20033;-45
2022/01/12 06:30:03;;;;;;;59.08;23.70;;;;;;;-1.73;82.92;103582.31;5034729;28;20139;-45
2022/01/12 06:32:30;;;;;;;67.28;24.58;;;;;;;-1.71;82.67;103580.41;5034350;28;20748;-45
2022/01/12 06:34:56;;;;;;;68.07;24.08;;;;;;;-1.70;82.57;103579.47;5035412;28;20125;-45
2022/01/12 06:37:22;;;;;;;67.25;24.80;;;;;;;-1.71;82.74;103588.31;5035508;28;20104;-45
2022/01/12 06:39:47;;;;;;;63.42;23.92;;;;;;;-1.69;82.31;103602.19;5035536;28;20036;-45
2022/01/12 06:42:13;;;;;;;62.55;23.60;;;;;;;-1.72;82.94;103605.03;5035649;28;20025;-45
2022/01/12 06:44:39;;;;;;;67.47;23.40;;;;;;;-1.67;82.80;103604.72;5036883;28;20078;-47
2022/01/12 06:47:05;;;;;;;75.97;23.15;;;;;;;-1.63;82.29;103601.78;5034984;28;20030;-45
2022/01/12 06:49:31;;;;;;;66.30;23.65;;;;;;;-1.62;82.15;103592.97;5036494;28;20501;-45
2022/01/12 06:51:59;;;;;;;67.95;24.00;;;;;;;-1.64;82.40;103597.47;5031624;28;20037;-45
2022/01/12 06:54:26;;;;;;;72.38;22.73;;;;;;;-1.67;82.39;103592.41;5036985;28;20491;-45
2022/01/12 06:56:51;;;;;;;70.88;24.20;;;;;;;-1.71;82.74;103608.50;5031581;28;20472;-45
2022/01/12 06:59:17;;;;;;;58.67;22.88;;;;;;;-1.71;82.90;103606.72;5037657;28;20184;-45
2022/01/12 07:01:44;;;;;;;66.68;24.23;;;;;;;-1.67;82.51;103605.56;5037596;28;20490;-45
2022/01/12 07:04:10;;;;;;;69.85;26.30;;;;;;;-1.66;82.20;103612.50;5037493;28;20024;-45
2022/01/12 07:06:35;;;;;;;54.85;21.48;;;;;;;-1.63;82.28;103599.16;5041328;28;20502;-45
2022/01/12 07:09:02;;;;;;;59.15;22.15;;;;;;;-1.65;82.65;103587.91;5040857;28;20041;-46
2022/01/12 07:11:28;;;;;;;56.67;22.63;;;;;;;-1.67;82.17;103583.69;5037832;28;20033;-45
2022/01/12 07:13:54;;;;;;;64.65;22.85;;;;;;;-1.66;82.69;103585.38;5037409;28;20330;-45
2022/01/12 07:16:19;;;;;;;71.47;22.15;;;;;;;-1.67;82.39;103588.94;5040200;28;20257;-45
2022/01/12 07:18:45;;;;;;;58.35;22.63;;;;;;;-1.75;82.72;103588.59;5039283;28;20112;-45
2022/01/12 07:21:10;;;;;;;62.72;22.67;;;;;;;-1.74;82.80;103590.28;5037773;28;20025;-46
2022/01/12 07:23:36;;;;;;;63.92;21.73;;;;;;;-1.72;82.67;103593.66;5040265;28;20021;-45
2022/01/12 07:26:01;;;;;;;64.07;21.25;;;;;;;-1.75;82.99;103592.09;5037443;28;20398;-45
2022/01/12 07:28:27;;;;;;;69.30;23.25;;;;;;;-1.73;82.99;103597.25;5038594;28;20588;-45
2022/01/12 07:30:52;;;;;;;64.82;23.38;;;;;;;-1.72;82.69;103602.41;5034357;28;21482;-45
2022/01/12 07:33:18;;;;;;;58.60;20.88;;;;;;;-1.67;83.14;103594.22;5039292;28;20029;-45
2022/01/12 07:35:44;;;;;;;61.15;22.23;;;;;;;-1.69;83.26;103596.09;5037422;28;20051;-45
2022/01/12 07:38:10;;;;;;;68.88;21.10;;;;;;;-1.67;83.10;103599.47;5039493;28;20036;-45
2022/01/12 07:40:36;;;;;;;55.60;21.60;;;;;;;-1.64;82.98;103597.47;5040219;28;20117;-45
2022/01/12 07:43:05;;;;;;;55.15;21.58;;;;;;;-1.64;82.72;103586.97;5039546;28;20036;-45
2022/01/12 07:45:31;;;;;;;62.92;21.60;;;;;;;-1.63;82.74;103586.03;5037490;28;20045;-46
2022/01/12 07:47:57;;;;;;;59.25;22.83;;;;;;;-1.59;82.92;103594.56;5039067;28;20298;-45
2022/01/12 07:50:23;;;;;;;57.05;20.77;;;;;;;-1.62;83.00;103606.09;5039345;28;20029;-45
2022/01/12 07:52:53;;;;;;;67.95;22.45;;;;;;;-1.59;83.19;103619.09;5038705;28;20051;-45
2022/01/12 07:55:19;;;;;;;57.08;19.95;;;;;;;-1.57;82.68;103616.34;5039152;28;20028;-45
2022/01/12 07:57:44;;;;;;;63.85;20.85;;;;;;;-1.52;82.62;103619.53;5038648;28;20021;-45
2022/01/12 08:00:10;;;;;;;62.78;22.35;;;;;;;-1.52;83.09;103628.25;5037926;28;20394;-45
2022/01/12 08:02:36;;;;;;;60.47;21.23;;;;;;;-1.50;82.83;103630.78;5039501;28;20039;-45
2022/01/12 08:05:01;;;;;;;58.03;21.70;;;;;;;-1.52;82.96;103633.50;5039060;28;20025;-45
2022/01/12 08:07:27;;;;;;;68.50;21.42;;;;;;;-1.50;82.84;103638.66;5041657;28;20484;-45
2022/01/12 08:09:54;;;;;;;64.90;22.67;;;;;;;-1.52;82.56;103624.78;5039006;28;20029;-46
2022/01/12 08:12:20;;;;;;;62.40;23.25;;;;;;;-1.50;82.98;103637.81;5038155;28;20140;-45
2022/01/12 08:14:45;;;;;;;63.80;20.67;;;;;;;-1.47;83.01;103637.63;5038537;28;20620;-46
2022/01/12 08:17:11;;;;;;;65.68;21.40;;;;;;;-1.46;82.98;103631.41;5039527;28;20024;-45
2022/01/12 08:19:38;;;;;;;65.00;21.40;;;;;;;-1.46;83.25;103631.41;5038718;28;20107;-45
2022/01/12 08:22:04;;;;;;;67.82;20.60;;;;;;;-1.53;83.37;103626.56;5039260;28;20090;-45
2022/01/12 08:24:30;;;;;;;63.85;22.50;;;;;;;-1.58;83.80;103622.56;5041743;28;20462;-45
2022/01/12 08:26:56;;;;;;;68.78;22.95;;;;;;;-1.63;84.44;103638.59;5038559;28;20032;-45
2022/01/12 08:29:22;;;;;;;71.78;22.90;;;;;;;-1.67;84.47;103647.63;5037954;28;20028;-45
2022/01/12 08:31:48;;;;;;;66.20;22.45;;;;;;;-1.60;84.56;103648.94;5038275;28;20115;-45
2022/01/12 08:34:13;;;;;;;79.88;23.45;;;;;;;-1.54;84.54;103655.59;5039860;28;20031;-47
2022/01/12 08:36:41;;;;;;;72.18;24.05;;;;;;;-1.54;83.96;103663.47;5039646;28;20029;-45
2022/01/12 08:39:08;;;;;;;72.25;22.15;;;;;;;-1.55;84.04;103665.25;5037849;28;20494;-45
2022/01/12 08:41:38;;;;;;;65.55;20.85;;;;;;;-1.48;84.17;103672.75;5040350;28;20032;-45
2022/01/12 08:44:08;;;;;;;73.80;22.45;;;;;;;-1.45;84.46;103677.81;5035186;28;20029;-45
2022/01/12 08:46:35;;;;;;;72.30;22.67;;;;;;;-1.45;84.69;103660.25;5042287;28;20052;-46
2022/01/12 08:49:00;;;;;;;68.03;21.80;;;;;;;-1.47;84.64;103658.66;5039451;28;20505;-46
2022/01/12 08:51:26;;;;;;;69.00;22.17;;;;;;;-1.46;84.94;103669.09;5039906;28;20041;-45
2022/01/12 08:53:52;;;;;;;67.47;21.33;;;;;;;-1.42;84.77;103659.22;5038374;28;20097;-45
2022/01/12 08:56:19;;;;;;;72.97;23.17;;;;;;;-1.40;84.97;103668.72;5039398;28;20072;-46
2022/01/12 08:58:44;;;;;;;69.85;21.75;;;;;;;-1.38;84.68;103664.19;5037335;28;20264;-45
2022/01/12 09:01:10;;;;;;;67.47;21.83;;;;;;;-1.42;85.14;103656.59;5033146;28;20024;-45
2022/01/12 09:03:37;;;;;;;64.82;22.58;;;;;;;-1.44;85.10;103656.69;5040030;28;20057;-44
2022/01/12 09:06:03;;;;;;;61.85;22.90;;;;;;;-1.38;84.96;103656.31;5038887;28;20040;-46
2022/01/12 09:08:29;;;;;;;74.07;22.60;;;;;;;-1.36;85.01;103666.72;5037352;28;20483;-45
2022/01/12 09:10:55;;;;;;;71.38;22.90;;;;;;;-1.37;85.29;103662.41;5038579;28;20483;-45
2022/01/12 09:13:20;;;;;;;70.53;23.92;;;;;;;-1.42;85.88;103657.44;5039000;28;20062;-46
2022/01/12 09:15:46;;;;;;;68.10;22.15;;;;;;;-1.43;86.29;103661.03;5037299;28;20040;-45
2022/01/12 09:18:12;;;;;;;68.22;22.60;;;;;;;-1.45;86.30;103654.16;5038399;28;20055;-45
2022/01/12 09:20:37;;;;;;;64.07;21.17;;;;;;;-1.43;86.67;103657.56;5038479;28;20028;-46
2022/01/12 09:23:03;;;;;;;63.30;22.73;;;;;;;-1.48;87.55;103649.09;5037235;28;20024;-46
2022/01/12 09:25:28;;;;;;;71.13;24.42;;;;;;;-1.50;87.51;103645.72;5036459;28;20039;-45
2022/01/12 09:27:56;;;;;;;80.22;23.35;;;;;;;-1.44;87.22;103640.91;5037204;28;20395;-45
2022/01/12 09:30:23;;;;;;;73.38;22.13;;;;;;;-1.37;87.36;103646.63;5038756;28;20377;-45
2022/01/12 09:32:49;;;;;;;64.03;20.92;;;;;;;-1.31;87.62;103643.59;5037232;28;20108;-45
2022/01/12 09:35:14;;;;;;;66.35;21.50;;;;;;;-1.26;87.33;103645.00;5038199;28;20103;-45
2022/01/12 09:37:40;;;;;;;76.30;21.48;;;;;;;-1.28;87.27;103643.38;5037904;28;20032;-45
2022/01/12 09:40:06;;;;;;;69.00;21.70;;;;;;;-1.27;87.36;103640.66;5036683;28;20021;-45
2022/01/12 09:42:32;;;;;;;70.97;21.27;;;;;;;-1.26;87.41;103641.50;5032092;28;20039;-46
2022/01/12 09:44:58;;;;;;;78.57;24.25;;;;;;;-1.25;87.54;103638.78;5037809;28;20041;-46
2022/01/12 09:47:24;;;;;;;75.10;23.38;;;;;;;-1.21;87.27;103634.16;5038197;28;20116;-46
2022/01/12 09:49:49;;;;;;;70.45;23.42;;;;;;;-1.15;87.61;103633.75;5035697;28;20040;-45
2022/01/12 09:52:15;;;;;;;72.53;22.15;;;;;;;-1.15;87.31;103630.28;5034494;28;20106;-45
2022/01/12 09:54:40;;;;;;;73.13;22.77;;;;;;;-1.12;87.53;103628.28;5038480;28;20029;-45
2022/01/12 09:57:07;;;;;;;72.13;22.58;;;;;;;-1.14;88.18;103616.19;5037564;28;20533;-46
2022/01/12 09:59:33;;;;;;;78.45;23.27;;;;;;;-1.15;87.92;103617.13;5037708;28;20021;-45
2022/01/12 10:01:59;;;;;;;70.68;23.05;;;;;;;-1.11;88.50;103614.19;5036265;28;20086;-45
2022/01/12 10:04:27;;;;;;;84.05;23.50;;;;;;;-1.07;88.03;103617.47;5038967;28;20087;-45
2022/01/12 10:06:57;;;;;;;75.88;22.92;;;;;;;-1.03;88.60;103617.16;5033952;28;20022;-47
2022/01/12 10:09:25;;;;;;;75.07;24.08;;;;;;;-1.10;89.92;103626.41;5035581;28;20033;-45
2022/01/12 10:11:54;;;;;;;66.30;20.95;;;;;;;-1.05;89.35;103607.69;5037102;28;20025;-45
2022/01/12 10:14:20;;;;;;;77.32;23.73;;;;;;;-1.02;89.33;103603.06;5039163;28;20025;-45
2022/01/12 10:16:55;;;;;;;78.85;24.60;;;;;;;-1.01;89.42;103602.13;5034366;28;20123;-45
2022/01/12 10:19:32;;;;;;;78.78;24.02;;;;;;;-0.97;89.75;103595.69;5037212;28;20021;-46
2022/01/12 10:22:00;;;;;;;74.25;22.63;;;;;;;-0.92;90.36;103609.38;5037166;28;20029;-45
2022/01/12 10:24:27;;;;;;;81.78;24.50;;;;;;;-0.88;89.71;103609.19;5038675;28;20020;-45
2022/01/12 10:26:55;;;;;;;76.20;24.45;;;;;;;-0.82;89.54;103614.88;5036756;28;20100;-45
2022/01/12 10:29:31;;;;;;;85.85;25.02;;;;;;;-0.82;89.63;103608.78;5038333;28;20021;-45
2022/01/12 10:31:57;;;;;;;87.90;23.45;;;;;;;-0.82;90.30;103595.63;5036774;28;20064;-46
2022/01/12 10:34:29;;;;;;;77.38;22.45;;;;;;;-0.78;90.18;103597.09;5041820;28;20037;-45
2022/01/12 10:36:56;;;;;;;73.40;22.27;;;;;;;-0.74;90.04;103603.81;5040569;28;20028;-45
2022/01/12 10:39:27;;;;;;;73.32;23.38;;;;;;;-0.65;89.74;103592.69;5038122;28;20037;-45
2022/01/12 10:42:06;;;;;;;73.07;23.50;;;;;;;-0.55;89.95;103603.41;5042202;28;20033;-46
2022/01/12 10:44:47;;;;;;;74.00;21.77;;;;;;;-0.52;88.94;103600.59;5041656;28;20441;-46
2022/01/12 10:47:16;;;;;;;77.38;23.83;;;;;;;-0.47;88.83;103611.66;5040461;28;20082;-46
2022/01/12 10:50:00;;;;;;;73.18;22.55;;;;;;;-0.44;88.36;103593.00;5042163;28;20044;-46
2022/01/12 10:52:29;;;;;;;68.95;22.52;;;;;;;-0.39;88.43;103590.88;5042896;28;20518;-45
2022/01/12 10:55:09;;;;;;;79.43;24.27;;;;;;;-0.35;88.19;103593.22;5042169;28;20026;-45
2022/01/12 10:57:38;;;;;;;71.55;22.00;;;;;;;-0.29;87.79;103591.09;5037934;28;20033;-46
2022/01/12 11:00:09;;;;;;;74.85;21.13;;;;;;;-0.25;87.84;103590.75;5042167;28;20028;-45
2022/01/12 11:02:37;;;;;;;63.58;23.20;;;;;;;-0.23;87.51;103588.00;5040595;28;20025;-46
2022/01/12 11:05:04;;;;;;;72.57;23.35;;;;;;;-0.20;87.40;103595.69;5040433;28;20021;-47
2022/01/12 11:07:30;;;;;;;65.00;22.35;;;;;;;-0.18;87.17;103588.53;5041447;28;20121;-46
2022/01/12 11:10:05;;;;;;;77.30;25.30;;;;;;;-0.19;87.22;103581.56;5041644;28;20751;-45
2022/01/12 11:12:30;;;;;;;;;;;;;;;-0.18;87.42;103584.13;5041251;28;20028;-46
2022/01/12 11:14:56;;;;;;;79.70;25.45;;;;;;;-0.15;87.51;103588.34;5039412;28;19917;-45
2022/01/12 11:17:21;;;;;;;84.05;25.80;;;;;;;-0.15;87.52;103583.06;5042438;28;20032;-45
2022/01/12 11:19:57;;;;;;;79.78;25.55;;;;;;;-0.10;87.46;103588.84;5041513;28;20017;-45
2022/01/12 11:22:35;;;;;;;87.40;24.27;;;;;;;-0.05;87.43;103579.66;5034392;28;20084;-45
2022/01/12 11:25:01;;;;;;;78.32;23.70;;;;;;;-0.04;87.48;103577.84;5040435;28;20048;-47
2022/01/12 11:27:26;;;;;;;80.10;23.33;;;;;;;0.00;87.22;103587.25;5038710;28;20459;-46
2022/01/12 11:29:52;;;;;;;89.10;24.33;;;;;;;0.05;87.52;103579.00;5037342;28;20037;-45
2022/01/12 11:32:24;;;;;;;70.35;22.45;;;;;;;0.08;86.79;103584.91;5040758;28;20249;-45
2022/01/12 11:35:03;;;;;;;81.35;23.35;;;;;;;0.12;86.96;103581.09;5036717;28;20546;-45
2022/01/12 11:37:29;;;;;;;73.78;22.02;;;;;;;0.16;86.89;103589.59;5039069;28;20087;-46
2022/01/12 11:40:06;;;;;;;67.18;23.98;;;;;;;0.19;87.03;103597.31;5037829;28;20021;-47
2022/01/12 11:42:36;;;;;;;76.65;23.63;;;;;;;0.26;86.60;103598.56;5038416;28;20040;-48
2022/01/12 11:45:03;;;;;;;78.78;22.70;;;;;;;0.28;86.62;103589.56;5034644;28;20029;-49
2022/01/12 11:47:31;;;;;;;82.45;22.88;;;;;;;0.30;86.51;103585.03;5035126;28;20025;-47
2022/01/12 11:49:57;;;;;;;68.65;21.75;;;;;;;0.33;87.22;103599.78;5037969;28;20029;-46
2022/01/12 11:52:29;;;;;;;73.60;23.75;;;;;;;0.32;87.21;103610.44;5037250;28;20153;-46
2022/01/12 11:55:10;;;;;;;82.53;22.75;;;;;;;0.39;86.56;103601.16;5037566;28;20022;-45
2022/01/12 11:57:38;;;;;;;75.82;20.85;;;;;;;0.45;86.63;103604.19;5036850;28;20036;-47
2022/01/12 12:00:16;;;;;;;73.30;20.50;;;;;;;0.47;86.41;103606.69;5038159;28;20298;-46
2022/01/12 12:02:48;;;;;;;76.20;23.45;;;;;;;0.38;88.31;103612.66;5034963;28;20087;-46
2022/01/12 12:05:22;;;;;;;71.15;20.30;;;;;;;0.41;87.54;103609.78;5036583;28;20091;-46
2022/01/12 12:07:51;;;;;;;70.47;20.98;;;;;;;0.39;88.52;103614.34;5036270;28;20029;-46
2022/01/12 12:10:26;;;;;;;71.68;21.98;;;;;;;0.40;88.71;103613.38;5037844;28;20020;-46
2022/01/12 12:12:53;;;;;;;71.68;22.13;;;;;;;0.46;87.98;103616.41;5037466;28;20037;-47
2022/01/12 12:15:19;;;;;;;78.50;22.52;;;;;;;0.44;89.53;103612.22;5037800;28;20079;-46
2022/01/12 12:17:45;;;;;;;68.00;21.98;;;;;;;0.48;89.27;103622.41;5037373;28;20037;-46
2022/01/12 12:20:15;;;;;;;75.93;20.60;;;;;;;0.55;87.98;103614.91;5037957;28;20028;-46
2022/01/12 12:22:42;;;;;;;63.30;20.73;;;;;;;0.62;87.88;103621.41;5035230;28;20052;-45
2022/01/12 12:25:16;;;;;;;70.72;21.52;;;;;;;0.66;87.53;103608.84;5035235;28;20067;-48
2022/01/12 12:27:45;;;;;;;59.75;20.27;;;;;;;0.69;87.62;103605.97;5034209;28;20490;-45
2022/01/12 12:30:13;;;;;;;69.55;21.95;;;;;;;0.73;87.20;103602.16;5035583;28;20052;-46
2022/01/12 12:32:48;;;;;;;63.60;20.25;;;;;;;0.68;88.34;103599.00;5036800;28;20604;-45
2022/01/12 12:35:23;;;;;;;78.28;20.42;;;;;;;0.74;88.05;103602.06;5036108;28;20028;-45
2022/01/12 12:37:57;;;;;;;66.07;21.05;;;;;;;0.75;88.08;103611.66;5036110;28;20116;-45